createdAt,value
2022-10-15T00:01:22.186Z,0.77
2022-10-15T00:03:49.082Z,0.85
2022-10-15T00:06:18.676Z,0.75
2022-10-15T00:08:46.072Z,0.70
2022-10-15T00:11:18.260Z,0.88
2022-10-15T00:13:45.463Z,0.82
2022-10-15T00:16:14.460Z,0.93
2022-10-15T00:18:41.870Z,0.60
2022-10-15T00:21:10.653Z,0.60
2022-10-15T00:23:37.810Z,0.90
2022-10-15T00:26:09.261Z,0.70
2022-10-15T00:28:38.404Z,0.57
2022-10-15T00:31:15.398Z,0.60
2022-10-15T00:33:43.639Z,0.45
2022-10-15T00:36:16.045Z,0.70
2022-10-15T00:38:42.756Z,0.60
2022-10-15T00:41:14.162Z,0.50
2022-10-15T00:43:49.480Z,0.43
2022-10-15T00:46:32.078Z,0.52
2022-10-15T00:51:40.842Z,0.40
2022-10-15T00:54:08.361Z,0.50
2022-10-15T00:56:39.370Z,0.40
2022-10-15T00:59:06.793Z,0.50
2022-10-15T01:01:33.777Z,0.50
2022-10-15T01:04:05.594Z,0.30
2022-10-15T01:06:32.617Z,0.50
2022-10-15T01:09:00.992Z,0.20
2022-10-15T01:11:33.505Z,0.40
2022-10-15T01:14:12.239Z,0.80
2022-10-15T01:16:59.131Z,0.32
2022-10-15T01:20:03.241Z,0.30
2022-10-15T01:22:53.104Z,0.50
2022-10-15T01:25:38.618Z,0.30
2022-10-15T01:28:34.199Z,0.30
2022-10-15T01:31:16.032Z,0.50
2022-10-15T01:33:59.588Z,0.30
2022-10-15T01:36:52.556Z,0.45
2022-10-15T01:39:28.704Z,0.40
2022-10-15T01:42:03.896Z,0.35
2022-10-15T01:44:42.326Z,0.40
2022-10-15T01:47:19.618Z,0.30
2022-10-15T01:49:48.167Z,0.40
2022-10-15T01:52:23.955Z,0.50
2022-10-15T01:54:53.300Z,0.40
2022-10-15T01:57:22.459Z,0.30
2022-10-15T01:59:49.670Z,0.30
2022-10-15T02:02:16.385Z,0.25
2022-10-15T02:04:45.194Z,0.30
2022-10-15T02:07:14.837Z,0.22
2022-10-15T02:09:57.225Z,0.32
2022-10-15T02:12:57.914Z,0.30
2022-10-15T02:15:59.914Z,0.40
2022-10-15T02:18:42.163Z,0.30
2022-10-15T02:21:18.239Z,0.30
2022-10-15T02:24:16.787Z,0.30
2022-10-15T02:26:44.558Z,0.40
2022-10-15T02:31:50.041Z,0.43
2022-10-15T02:34:22.674Z,0.30
2022-10-15T02:36:50.141Z,0.20
2022-10-15T02:39:24.262Z,0.40
2022-10-15T02:41:54.978Z,0.40
2022-10-15T02:44:21.718Z,0.57
2022-10-15T02:46:48.599Z,0.60
2022-10-15T02:49:15.305Z,0.50
2022-10-15T02:51:41.934Z,0.55
2022-10-15T02:54:10.926Z,0.45
2022-10-15T02:56:39.337Z,0.50
2022-10-15T02:59:06.566Z,0.50
2022-10-15T03:01:34.283Z,0.47
2022-10-15T03:04:01.806Z,0.32
2022-10-15T03:06:30.991Z,0.40
2022-10-15T03:08:57.649Z,0.30
2022-10-15T03:11:26.827Z,0.30
2022-10-15T03:13:53.487Z,0.30
2022-10-15T03:16:20.177Z,0.30
2022-10-15T03:18:47.003Z,0.40
2022-10-15T03:21:15.966Z,0.28
2022-10-15T03:23:42.651Z,0.30
2022-10-15T03:26:09.366Z,0.30
2022-10-15T03:28:36.190Z,0.45
2022-10-15T03:31:05.766Z,0.30
2022-10-15T03:33:34.838Z,0.47
2022-10-15T03:36:03.975Z,0.30
2022-10-15T03:38:32.736Z,0.30
2022-10-15T03:41:01.859Z,0.30
2022-10-15T03:43:28.501Z,0.20
2022-10-15T03:45:55.115Z,0.20
2022-10-15T03:48:21.756Z,0.20
2022-10-15T03:50:48.498Z,0.30
2022-10-15T03:53:17.577Z,0.30
2022-10-15T03:55:44.469Z,0.20
2022-10-15T03:58:11.103Z,0.50
2022-10-15T04:00:42.633Z,0.30
2022-10-15T04:03:09.362Z,0.20
2022-10-15T04:05:36.281Z,0.20
2022-10-15T04:08:04.003Z,0.20
2022-10-15T04:10:30.781Z,0.40
2022-10-15T04:12:59.585Z,0.20
2022-10-15T04:15:27.735Z,0.30
2022-10-15T04:17:56.652Z,0.13
2022-10-15T04:20:26.470Z,0.20
2022-10-15T04:22:58.437Z,0.30
2022-10-15T04:25:25.075Z,0.20
2022-10-15T04:27:53.297Z,0.20
2022-10-15T04:30:19.961Z,0.22
2022-10-15T04:32:46.640Z,0.25
2022-10-15T04:35:13.370Z,0.20
2022-10-15T04:37:40.165Z,0.30
2022-10-15T04:40:07.666Z,0.30
2022-10-15T04:42:34.310Z,0.30
2022-10-15T04:45:00.915Z,0.50
2022-10-15T04:47:27.611Z,0.40
2022-10-15T04:49:54.245Z,0.45
2022-10-15T04:52:20.884Z,0.70
2022-10-15T04:54:47.612Z,0.40
2022-10-15T04:57:14.449Z,0.40
2022-10-15T04:59:42.006Z,0.57
2022-10-15T05:02:08.669Z,0.55
2022-10-15T05:04:37.545Z,0.50
2022-10-15T05:07:06.714Z,0.52
2022-10-15T05:09:36.980Z,0.65
2022-10-15T05:12:04.012Z,0.70
2022-10-15T05:14:30.660Z,0.40
2022-10-15T05:16:57.248Z,0.50
2022-10-15T05:19:23.963Z,0.50
2022-10-15T05:21:50.582Z,0.60
2022-10-15T05:24:19.793Z,0.50
2022-10-15T05:26:46.618Z,0.50
2022-10-15T05:29:13.308Z,0.50
2022-10-15T05:31:39.998Z,0.93
2022-10-15T05:34:08.462Z,0.75
2022-10-15T05:36:36.889Z,0.40
2022-10-15T05:39:06.981Z,0.50
2022-10-15T05:41:33.612Z,1.00
2022-10-15T05:44:02.449Z,0.40
2022-10-15T05:46:29.220Z,0.60
2022-10-15T05:48:57.830Z,0.60
2022-10-15T05:51:26.322Z,0.50
2022-10-15T05:53:54.290Z,0.40
2022-10-15T05:56:23.644Z,0.50
2022-10-15T05:58:51.078Z,0.40
2022-10-15T06:01:18.056Z,0.80
2022-10-15T06:03:44.801Z,0.50
2022-10-15T06:06:26.341Z,0.45
2022-10-15T06:09:01.697Z,0.50
2022-10-15T06:11:28.772Z,0.55
2022-10-15T06:13:55.405Z,0.80
2022-10-15T06:16:24.023Z,0.70
2022-10-15T06:18:54.793Z,0.40
2022-10-15T06:21:24.552Z,0.60
2022-10-15T06:23:51.250Z,0.60
2022-10-15T06:26:20.423Z,0.60
2022-10-15T06:28:47.143Z,0.40
2022-10-15T06:31:14.042Z,0.63
2022-10-15T06:33:43.159Z,0.40
2022-10-15T06:36:11.056Z,0.50
2022-10-15T06:38:39.268Z,0.40
2022-10-15T06:41:07.648Z,0.38
2022-10-15T06:43:35.566Z,0.50
2022-10-15T06:46:03.965Z,0.43
2022-10-15T06:48:30.710Z,0.50
2022-10-15T06:51:01.272Z,0.98
2022-10-15T06:53:29.368Z,0.50
2022-10-15T06:56:03.774Z,0.30
2022-10-15T06:58:30.629Z,0.80
2022-10-15T07:01:02.179Z,0.60
2022-10-15T07:03:29.470Z,0.70
2022-10-15T07:05:56.273Z,0.60
2022-10-15T07:08:27.441Z,0.60
2022-10-15T07:10:54.073Z,0.93
2022-10-15T07:13:25.832Z,0.90
2022-10-15T07:15:55.828Z,1.00
2022-10-15T07:18:23.048Z,1.20
2022-10-15T07:20:49.718Z,0.98
2022-10-15T07:23:20.223Z,1.65
2022-10-15T07:25:50.933Z,1.23
2022-10-15T07:28:17.601Z,1.40
2022-10-15T07:30:46.475Z,1.80
2022-10-15T07:33:13.098Z,2.72
2022-10-15T07:35:39.795Z,1.90
2022-10-15T07:38:08.822Z,1.92
2022-10-15T07:40:38.151Z,2.17
2022-10-15T07:43:07.582Z,2.22
2022-10-15T07:45:36.691Z,2.30
2022-10-15T07:48:03.628Z,2.53
2022-10-15T07:50:34.179Z,2.40
2022-10-15T07:53:05.459Z,2.50
2022-10-15T07:55:32.152Z,1.92
2022-10-15T07:57:59.319Z,2.20
2022-10-15T08:00:26.355Z,1.85
2022-10-15T08:02:52.988Z,1.90
2022-10-15T08:05:19.744Z,2.00
2022-10-15T08:07:46.368Z,1.85
2022-10-15T08:10:13.560Z,1.50
2022-10-15T08:12:40.293Z,1.67
2022-10-15T08:15:07.902Z,1.60
2022-10-15T08:17:36.856Z,2.13
2022-10-15T08:20:03.959Z,1.92
2022-10-15T08:22:30.594Z,1.77
2022-10-15T08:24:57.228Z,1.85
2022-10-15T08:27:23.869Z,1.73
2022-10-15T08:29:52.810Z,1.73
2022-10-15T08:32:19.369Z,1.58
2022-10-15T08:34:45.970Z,1.40
2022-10-15T08:37:12.604Z,1.15
2022-10-15T08:39:39.263Z,1.45
2022-10-15T08:42:14.412Z,1.10
2022-10-15T08:45:13.172Z,1.33
2022-10-15T08:47:45.237Z,1.00
2022-10-15T08:50:41.290Z,0.85
2022-10-15T08:53:14.139Z,1.20
2022-10-15T08:55:43.593Z,0.95
2022-10-15T08:58:20.738Z,0.95
2022-10-15T09:00:51.920Z,1.00
2022-10-15T09:03:30.546Z,0.80
2022-10-15T09:06:23.907Z,0.82
2022-10-15T09:09:30.472Z,0.70
2022-10-15T09:12:18.613Z,0.70
2022-10-15T09:14:47.771Z,0.70
2022-10-15T09:17:23.714Z,0.70
2022-10-15T09:19:55.364Z,0.50
2022-10-15T09:22:33.509Z,0.70
2022-10-15T09:25:07.152Z,0.93
2022-10-15T09:27:36.414Z,0.70
2022-10-15T09:30:21.229Z,0.73
2022-10-15T09:33:00.819Z,0.90
2022-10-15T09:35:45.380Z,0.57
2022-10-15T09:38:30.769Z,0.80
2022-10-15T09:41:28.938Z,0.60
2022-10-15T09:43:58.144Z,0.75
2022-10-15T09:46:25.009Z,0.80
2022-10-15T09:49:01.553Z,0.80
2022-10-15T09:51:44.017Z,0.80
2022-10-15T09:54:36.568Z,0.60
2022-10-15T09:57:03.271Z,0.98
2022-10-15T10:02:18.434Z,0.90
2022-10-15T10:04:50.174Z,1.02
2022-10-15T10:07:37.747Z,1.02
2022-10-15T10:10:28.631Z,1.52
2022-10-15T10:12:56.660Z,0.93
2022-10-15T10:15:43.531Z,0.73
2022-10-15T10:18:21.500Z,0.63
2022-10-15T10:21:00.507Z,0.77
2022-10-15T10:23:39.255Z,0.80
2022-10-15T10:26:08.568Z,0.57
2022-10-15T10:28:48.642Z,0.75
2022-10-15T10:31:15.561Z,0.60
2022-10-15T10:33:44.219Z,0.73
2022-10-15T10:36:31.137Z,0.60
2022-10-15T10:39:15.739Z,0.70
2022-10-15T10:42:00.441Z,0.68
2022-10-15T10:44:39.546Z,0.70
2022-10-15T10:47:08.301Z,0.88
2022-10-15T10:49:48.853Z,0.80
2022-10-15T10:52:21.767Z,0.80
2022-10-15T10:55:04.692Z,0.80
2022-10-15T10:57:47.999Z,1.00
2022-10-15T11:00:43.206Z,0.75
2022-10-15T11:03:41.854Z,0.50
2022-10-15T11:06:51.078Z,0.82
2022-10-15T11:09:38.562Z,0.75
2022-10-15T11:12:47.056Z,0.80
2022-10-15T11:15:59.056Z,0.90
2022-10-15T11:18:59.515Z,0.75
2022-10-15T11:21:41.075Z,0.88
2022-10-15T11:24:23.639Z,0.70
2022-10-15T11:27:11.028Z,0.90
2022-10-15T11:30:10.469Z,0.95
2022-10-15T11:33:09.494Z,0.93
2022-10-15T11:35:53.932Z,0.80
2022-10-15T11:38:56.349Z,0.98
2022-10-15T11:41:25.892Z,0.77
2022-10-15T11:44:04.219Z,0.60
2022-10-15T11:47:05.081Z,0.50
2022-10-15T11:50:03.269Z,0.50
2022-10-15T11:52:48.357Z,0.88
2022-10-15T11:55:25.151Z,0.70
2022-10-15T11:58:02.170Z,0.50
2022-10-15T12:00:39.885Z,0.82
2022-10-15T12:03:23.696Z,0.70
2022-10-15T12:05:58.721Z,0.80
2022-10-15T12:08:30.965Z,0.70
2022-10-15T12:11:13.709Z,0.93
2022-10-15T12:13:58.032Z,0.70
2022-10-15T12:16:52.401Z,0.70
2022-10-15T12:19:21.746Z,0.47
2022-10-15T12:22:07.136Z,0.63
2022-10-15T12:24:40.714Z,0.55
2022-10-15T12:27:30.162Z,0.50
2022-10-15T12:29:59.868Z,0.40
2022-10-15T12:32:30.625Z,0.60
2022-10-15T12:35:01.427Z,0.60
2022-10-15T12:37:32.134Z,0.30
2022-10-15T12:40:02.326Z,0.50
2022-10-15T12:42:39.933Z,0.50
2022-10-15T12:45:19.985Z,0.60
2022-10-15T12:47:55.433Z,0.57
2022-10-15T12:50:24.581Z,0.70
2022-10-15T12:52:56.431Z,0.70
2022-10-15T12:55:25.488Z,0.60
2022-10-15T12:57:54.323Z,0.60
2022-10-15T13:00:41.478Z,0.68
2022-10-15T13:03:09.786Z,0.65
2022-10-15T13:05:37.241Z,0.93
2022-10-15T13:08:12.065Z,0.90
2022-10-15T13:10:51.585Z,0.55
2022-10-15T13:13:25.645Z,0.50
2022-10-15T13:15:59.633Z,0.60
2022-10-15T13:18:28.886Z,0.63
2022-10-15T13:20:56.529Z,0.90
2022-10-15T13:23:36.506Z,0.80
2022-10-15T13:26:27.273Z,1.30
2022-10-15T13:28:57.726Z,1.10
2022-10-15T13:31:30.414Z,0.95
2022-10-15T13:34:25.437Z,1.33
2022-10-15T13:36:54.326Z,1.08
2022-10-15T13:39:37.566Z,1.10
2022-10-15T13:42:22.115Z,1.93
2022-10-15T13:45:04.788Z,1.42
2022-10-15T13:47:41.043Z,1.13
2022-10-15T13:50:17.277Z,0.98
2022-10-15T13:52:52.394Z,1.33
2022-10-15T13:55:30.759Z,0.98
2022-10-15T13:58:04.394Z,1.50
2022-10-15T14:00:38.348Z,1.40
2022-10-15T14:03:16.321Z,1.30
2022-10-15T14:05:44.827Z,1.10
2022-10-15T14:08:24.658Z,1.42
2022-10-15T14:10:53.853Z,1.30
2022-10-15T14:13:20.915Z,1.48
2022-10-15T14:15:56.364Z,1.95
2022-10-15T14:18:36.314Z,1.67
2022-10-15T14:21:04.134Z,1.13
2022-10-15T14:23:31.873Z,1.50
2022-10-15T14:26:02.059Z,1.30
2022-10-15T14:28:32.469Z,1.50
2022-10-15T14:31:03.489Z,1.27
2022-10-15T14:33:43.974Z,1.48
2022-10-15T14:36:24.103Z,1.60
2022-10-15T14:38:52.232Z,1.65
2022-10-15T14:41:31.436Z,1.67
2022-10-15T14:44:11.580Z,1.95
2022-10-15T14:46:45.073Z,2.00
2022-10-15T14:49:31.802Z,2.20
2022-10-15T14:52:03.297Z,1.90
2022-10-15T14:54:44.364Z,2.28
2022-10-15T14:57:27.331Z,2.30
2022-10-15T14:59:55.927Z,1.90
2022-10-15T15:02:26.015Z,2.05
2022-10-15T15:05:16.009Z,2.00
2022-10-15T15:07:43.960Z,1.95
2022-10-15T15:10:11.373Z,1.88
2022-10-15T15:12:40.527Z,1.65
2022-10-15T15:15:19.666Z,1.85
2022-10-15T15:17:52.022Z,1.52
2022-10-15T15:20:20.436Z,1.58
2022-10-15T15:22:54.699Z,1.40
2022-10-15T15:25:33.787Z,1.38
2022-10-15T15:28:01.605Z,1.13
2022-10-15T15:30:30.583Z,1.42
2022-10-15T15:33:00.865Z,1.42
2022-10-15T15:35:44.106Z,1.17
2022-10-15T15:38:12.216Z,1.67
2022-10-15T15:40:38.919Z,1.67
2022-10-15T15:43:05.587Z,1.80
2022-10-15T15:45:32.393Z,1.58
2022-10-15T15:48:03.420Z,1.60
2022-10-15T15:50:30.312Z,1.58
2022-10-15T15:52:57.278Z,1.67
2022-10-15T15:55:24.442Z,1.90
2022-10-15T15:57:51.418Z,1.75
2022-10-15T16:00:18.586Z,2.75
2022-10-15T16:02:45.921Z,2.35
2022-10-15T16:05:16.729Z,1.88
2022-10-15T16:07:44.397Z,2.20
2022-10-15T16:10:13.507Z,2.08
2022-10-15T16:12:40.590Z,2.00
2022-10-15T16:15:11.585Z,2.13
2022-10-15T16:20:11.206Z,2.25
2022-10-15T16:22:37.982Z,2.30
2022-10-15T16:25:07.172Z,2.30
2022-10-15T16:27:34.452Z,2.15
2022-10-15T16:30:05.012Z,1.98
2022-10-15T16:32:31.814Z,2.22
2022-10-15T16:34:58.426Z,2.40
2022-10-15T16:37:25.277Z,2.42
2022-10-15T16:39:52.092Z,2.38
2022-10-15T16:42:18.758Z,2.75
2022-10-15T16:44:47.980Z,1.95
2022-10-15T16:47:14.768Z,2.05
2022-10-15T16:49:42.862Z,1.65
2022-10-15T16:52:09.769Z,1.10
2022-10-15T16:54:36.665Z,1.10
2022-10-15T16:57:03.458Z,0.95
2022-10-15T16:59:32.530Z,1.17
2022-10-15T17:02:01.137Z,1.25
2022-10-15T17:04:27.929Z,0.98
2022-10-15T17:06:54.636Z,0.95
2022-10-15T17:09:21.489Z,1.17
2022-10-15T17:11:48.384Z,1.63
2022-10-15T17:14:16.703Z,1.27
2022-10-15T17:16:47.916Z,1.35
2022-10-15T17:19:17.064Z,1.70
2022-10-15T17:21:46.916Z,1.40
2022-10-15T17:24:18.493Z,1.30
2022-10-15T17:26:46.393Z,1.33
2022-10-15T17:29:20.084Z,1.70
2022-10-15T17:31:48.031Z,1.70
2022-10-15T17:34:14.792Z,1.35
2022-10-15T17:36:45.510Z,1.20
2022-10-15T17:39:15.070Z,1.20
2022-10-15T17:41:42.097Z,1.20
2022-10-15T17:44:11.134Z,1.00
2022-10-15T17:46:38.585Z,1.27
2022-10-15T17:49:05.766Z,1.13
2022-10-15T17:51:34.496Z,1.17
2022-10-15T17:54:04.013Z,1.20
2022-10-15T17:56:32.925Z,1.30
2022-10-15T17:59:01.150Z,1.00
2022-10-15T18:01:56.252Z,1.52
2022-10-15T18:04:20.323Z,1.48
2022-10-15T18:06:46.963Z,1.20
2022-10-15T18:09:13.604Z,1.00
2022-10-15T18:11:40.283Z,0.95
2022-10-15T18:14:07.026Z,1.05
2022-10-15T18:16:33.819Z,0.85
2022-10-15T18:19:00.491Z,0.90
2022-10-15T18:21:29.613Z,1.08
2022-10-15T18:23:56.626Z,0.93
2022-10-15T18:26:23.766Z,1.02
2022-10-15T18:28:52.668Z,1.05
2022-10-15T18:31:20.322Z,1.13
2022-10-15T18:33:52.606Z,0.90
2022-10-15T18:36:23.250Z,1.20
2022-10-15T18:38:50.544Z,1.45
2022-10-15T18:41:21.932Z,1.00
2022-10-15T18:43:59.665Z,1.63
2022-10-15T18:46:30.791Z,0.90
2022-10-15T18:48:58.128Z,1.15
2022-10-15T18:51:27.917Z,1.15
2022-10-15T18:53:58.490Z,1.27
2022-10-15T18:56:25.501Z,1.33
2022-10-15T18:58:54.985Z,1.10
2022-10-15T19:01:28.021Z,1.55
2022-10-15T19:03:57.954Z,1.00
2022-10-15T19:06:30.052Z,1.00
2022-10-15T19:09:00.946Z,1.20
2022-10-15T19:11:28.294Z,1.40
2022-10-15T19:13:57.366Z,1.30
2022-10-15T19:16:24.186Z,1.60
2022-10-15T19:18:50.902Z,1.23
2022-10-15T19:21:17.695Z,1.38
2022-10-15T19:23:46.542Z,1.40
2022-10-15T19:26:13.937Z,1.73
2022-10-15T19:28:40.808Z,1.30
2022-10-15T19:31:09.595Z,1.27
2022-10-15T19:33:43.282Z,1.13
2022-10-15T19:36:10.000Z,1.23
2022-10-15T19:38:38.842Z,1.58
2022-10-15T19:41:05.615Z,1.33
2022-10-15T19:43:32.236Z,1.48
2022-10-15T19:46:06.261Z,1.50
2022-10-15T19:48:32.939Z,1.40
2022-10-15T19:51:01.971Z,1.27
2022-10-15T19:53:31.632Z,1.40
2022-10-15T19:56:00.859Z,1.48
2022-10-15T19:58:30.251Z,1.52
2022-10-15T20:00:57.249Z,1.70
2022-10-15T20:03:30.162Z,1.20
2022-10-15T20:05:57.949Z,1.50
2022-10-15T20:08:24.979Z,1.40
2022-10-15T20:10:52.065Z,1.27
2022-10-15T20:13:21.364Z,1.50
2022-10-15T20:15:51.285Z,1.42
2022-10-15T20:18:21.723Z,1.42
2022-10-15T20:20:48.944Z,1.95
2022-10-15T20:23:18.441Z,1.67
2022-10-15T20:25:45.825Z,1.60
2022-10-15T20:28:15.031Z,1.52
2022-10-15T20:30:44.943Z,1.58
2022-10-15T20:33:13.143Z,1.90
2022-10-15T20:35:40.950Z,1.75
2022-10-15T20:38:07.960Z,1.80
2022-10-15T20:40:38.835Z,1.83
2022-10-15T20:43:05.461Z,1.80
2022-10-15T20:45:38.393Z,1.88
2022-10-15T20:48:05.570Z,1.80
2022-10-15T20:50:36.883Z,1.60
2022-10-15T20:53:03.532Z,1.70
2022-10-15T20:55:32.405Z,2.00
2022-10-15T20:57:59.414Z,1.98
2022-10-15T21:00:26.070Z,1.65
2022-10-15T21:02:55.023Z,2.40
2022-10-15T21:05:21.800Z,1.70
2022-10-15T21:07:48.532Z,1.92
2022-10-15T21:10:15.284Z,1.60
2022-10-15T21:12:41.942Z,2.00
2022-10-15T21:15:13.894Z,2.03
2022-10-15T21:17:41.013Z,1.75
2022-10-15T21:20:08.632Z,1.90
2022-10-15T21:22:35.325Z,2.28
2022-10-15T21:25:02.134Z,1.88
2022-10-15T21:27:28.850Z,2.03
2022-10-15T21:29:58.070Z,2.20
2022-10-15T21:32:24.717Z,1.80
2022-10-15T21:34:51.348Z,1.75
2022-10-15T21:37:20.216Z,1.75
2022-10-15T21:39:46.896Z,1.90
2022-10-15T21:42:13.690Z,2.50
2022-10-15T21:44:40.452Z,1.80
2022-10-15T21:47:12.863Z,2.00
2022-10-15T21:49:42.009Z,1.83
2022-10-15T21:52:08.672Z,1.40
2022-10-15T21:54:35.342Z,1.40
2022-10-15T21:57:02.029Z,2.10
2022-10-15T21:59:28.651Z,2.72
2022-10-15T22:01:55.380Z,1.48
2022-10-15T22:04:24.244Z,1.80
2022-10-15T22:06:53.421Z,2.05
2022-10-15T22:09:20.003Z,1.48
2022-10-15T22:11:48.866Z,1.60
2022-10-15T22:14:15.505Z,1.48
2022-10-15T22:16:42.467Z,1.48
2022-10-15T22:19:13.400Z,2.30
2022-10-15T22:21:40.210Z,1.70
2022-10-15T22:24:13.568Z,1.67
2022-10-15T22:26:45.288Z,1.50
2022-10-15T22:29:24.294Z,1.70
2022-10-15T22:31:51.760Z,1.60
2022-10-15T22:34:19.516Z,1.80
2022-10-15T22:36:46.594Z,1.60
2022-10-15T22:39:17.299Z,1.65
2022-10-15T22:41:46.020Z,1.50
2022-10-15T22:44:20.992Z,1.67
2022-10-15T22:46:49.374Z,1.88
2022-10-15T22:49:19.576Z,1.60
2022-10-15T22:51:47.207Z,1.70
2022-10-15T22:54:16.029Z,1.70
2022-10-15T22:56:42.737Z,1.30
2022-10-15T22:59:11.736Z,1.65
2022-10-15T23:01:38.704Z,1.83
2022-10-15T23:04:07.340Z,2.30
2022-10-15T23:06:36.119Z,1.42
2022-10-15T23:09:06.987Z,1.73
2022-10-15T23:11:37.681Z,1.38
2022-10-15T23:14:13.505Z,1.67
2022-10-15T23:16:42.779Z,1.70
2022-10-15T23:19:16.206Z,1.60
2022-10-15T23:21:51.792Z,1.67
2022-10-15T23:24:20.988Z,1.60
2022-10-15T23:26:48.161Z,1.20
2022-10-15T23:29:18.064Z,1.27
2022-10-15T23:31:45.366Z,1.20
2022-10-15T23:34:18.433Z,1.15
2022-10-15T23:36:45.279Z,1.45
2022-10-15T23:39:19.895Z,1.30
2022-10-15T23:41:46.795Z,1.15
2022-10-15T23:44:13.777Z,1.10
2022-10-15T23:46:41.047Z,1.23
2022-10-15T23:49:07.787Z,1.00
2022-10-15T23:51:34.831Z,1.40
2022-10-15T23:54:03.430Z,1.10
2022-10-15T23:56:30.733Z,1.30
2022-10-15T23:59:00.155Z,1.17
